Manchester, NH

4:05 PM EDT on September 04, 2015 (GMT -0400)
Millyard | | Change Station
CLOSE
Current Station
Personal Weather Station
Location: Manchester, NH
Elevation: 164 ft
Nearby Weather Stations

Elev 164 ft 43.00 °N, 71.47 °W | Updated 22 seconds ago

Partly Cloudy
Partly Cloudy
82.8 °F
Feels Like 82 °F
N
2.0
Wind Variable Wind from SW
Gusts 4.0 mph

Today
High -- | Low -- °F
--% Chance of Precip.
Yesterday
High -- | Low -- °F
Precip. -- in
6:13 AM 7:15 PM
Waning Gibbous, 56% visible
Pressure 30.20 in
Visibility 10.0 miles
Clouds Few 6500 ft
Scattered Clouds 25000 ft
Heat Index 82 °F
Dew Point 57 °F
Humidity 41%
Rainfall 0.00 in
Snow Depth Not available.
UV 2.0 out of 12
Pollen 7.00 out of 12
Air Quality Not available.
Flu Activity Not available.
METAR KMHT 041953Z 09006KT 10SM FEW065 SCT250 24/12 A3017 RMK AO2 SLP226 T02440117
Pressure 30.20 in
Visibility 10.0 miles
Clouds Few 6500 ft
Scattered Clouds 25000 ft
Heat Index 82 °F
Dew Point 57 °F
Humidity 41%
Rainfall 0.00 in
Snow Depth Not available.
UV 2.0 out of 12
Pollen 7.00 out of 12
Air Quality Not available.
Flu Activity Not available.
METAR KMHT 041953Z 09006KT 10SM FEW065 SCT250 24/12 A3017 RMK AO2 SLP226 T02440117

10-Day Weather Forecast

×

Almanac

Astronomy

Sep. 04, 2015 Rise Set
Actual Time
Civil Twilight
Nautical Twilight
Astronomical Twilight
Moon
Length of Visible Light
Length of Day
Tomorrow will be .
, % of the Moon is Illuminated

Today's Extremes

State Highs State Lows

Community

WunderPhotos

Upload Photos

1,852,272 photos uploaded!

WunderBlogs® & News

Nearby

Air Quality

  Air Quality AQ Index Pollutant
Not available.

Snow Depth

Station Depth Elevation

Earthquake Activity

City Distance Mag. Time & Date
Minimum magnitude displayed is 2.5.

Coastal Water Temperatures

Place Temperature

Stations

Nearby Weather Stations

Station Location Temp. Windchill Dew Point Humidity Wind Precip. Elev Updated Type